Time;durP1;ratioP1;P1;durP2;ratioP2;P2;SDS_P1;SDS_P2;PMS_P1;PMS_P2;Temp;Humidity;BMP_temperature;BMP_pressure;BME280_temperature;BME280_humidity;BME280_pressure;Samples;Min_cycle;Max_cycle;Signal;HPM_P1;HPM_P2
2020/12/19 00:00:00;;;;;;;;;;;4.90;99.90;;;;;;4211647;28;19909;-75
2020/12/19 00:02:00;;;;;;;;;;;5.00;99.90;;;;;;4177909;28;19915;-76
2020/12/19 00:04:01;;;;;;;;;;;5.00;99.90;;;;;;4177960;28;20382;-76
2020/12/19 00:06:06;;;;;;;;;;;5.10;99.90;;;;;;4177756;28;19921;-77
2020/12/19 00:08:06;;;;;;;;;;;5.00;99.90;;;;;;4176220;28;19916;-76
2020/12/19 00:10:07;;;;;;;;;;;5.00;99.90;;;;;;4167163;28;19997;-76
2020/12/19 00:12:08;;;;;;;;;;;5.00;99.90;;;;;;4176140;28;19908;-76
2020/12/19 00:14:09;;;;;;;;;;;4.90;99.90;;;;;;4176765;28;19943;-76
2020/12/19 00:16:16;;;;;;;;;;;5.10;99.90;;;;;;4176755;28;19909;-75
2020/12/19 00:18:16;;;;;;;;;;;5.00;99.90;;;;;;4178776;28;19991;-76
2020/12/19 00:20:17;;;;;;;;;;;4.90;99.90;;;;;;4177337;28;20460;-76
2020/12/19 00:22:21;;;;;;;;;;;4.90;99.90;;;;;;4178864;28;19908;-76
2020/12/19 00:24:21;;;;;;;;;;;4.80;99.90;;;;;;4211425;28;20303;-76
2020/12/19 00:26:22;;;;;;;;;;;4.90;99.90;;;;;;4179187;28;19958;-76
2020/12/19 00:28:22;;;;;;;;;;;4.90;99.90;;;;;;4178811;28;19999;-76
2020/12/19 00:30:23;;;;;;;;;;;4.90;99.90;;;;;;4177566;28;19920;-76
2020/12/19 00:32:23;;;;;;;;;;;4.90;99.90;;;;;;4210692;28;19962;-76
2020/12/19 00:34:24;;;;;;;;;;;4.90;99.90;;;;;;4178213;28;19909;-76
2020/12/19 00:36:25;;;;;;;;;;;4.90;99.90;;;;;;4179004;28;20004;-75
2020/12/19 00:38:26;;;;;;;;;;;4.90;99.90;;;;;;4177447;28;19912;-76
2020/12/19 00:40:26;;;;;;;;;;;4.80;99.90;;;;;;4177707;28;20065;-76
2020/12/19 00:42:27;;;;;;;;;;;4.80;99.90;;;;;;4177421;28;19920;-76
2020/12/19 00:44:27;;;;;;;;;;;4.80;99.90;;;;;;4179138;28;20409;-76
2020/12/19 00:46:28;;;;;;;;;;;4.80;99.90;;;;;;4178270;28;19959;-76
2020/12/19 00:48:28;;;;;;;;;;;4.80;99.90;;;;;;4179053;28;19915;-76
2020/12/19 00:50:29;;;;;;;;;;;4.80;99.90;;;;;;4178881;28;20557;-76
2020/12/19 00:52:31;;;;;;;;;;;4.80;99.90;;;;;;4177261;28;19963;-75
2020/12/19 00:54:31;;;;;;;;;;;4.80;99.90;;;;;;4179225;28;19916;-76
2020/12/19 00:56:32;;;;;;;;;;;4.70;99.90;;;;;;4177489;28;19913;-76
2020/12/19 00:58:35;;;;;;;;;;;4.80;99.90;;;;;;4178031;28;19912;-76
2020/12/19 01:00:35;;;;;;;;;;;4.80;99.90;;;;;;4176788;28;19908;-76
2020/12/19 01:02:37;;;;;;;;;;;4.80;99.90;;;;;;4178795;28;19940;-75
2020/12/19 01:04:37;;;;;;;;;;;4.80;99.90;;;;;;4177272;28;19913;-76
2020/12/19 01:06:38;;;;;;;;;;;4.80;99.90;;;;;;4177537;28;19913;-76
2020/12/19 01:08:38;;;;;;;;;;;4.80;99.90;;;;;;4175967;28;19973;-76
2020/12/19 01:10:39;;;;;;;;;;;4.80;99.90;;;;;;4177015;28;19913;-76
2020/12/19 01:12:40;;;;;;;;;;;4.80;99.90;;;;;;4177213;28;19959;-76
2020/12/19 01:14:41;;;;;;;;;;;4.70;99.90;;;;;;4175729;28;20351;-76
2020/12/19 01:16:42;;;;;;;;;;;4.80;99.90;;;;;;4175829;28;19908;-76
2020/12/19 01:18:43;;;;;;;;;;;4.80;99.90;;;;;;4176029;28;19909;-76
2020/12/19 01:20:44;;;;;;;;;;;4.80;99.90;;;;;;4177155;28;19991;-76
2020/12/19 01:22:44;;;;;;;;;;;4.70;99.90;;;;;;4177170;28;19909;-76
2020/12/19 01:24:45;;;;;;;;;;;4.70;99.90;;;;;;4177482;28;19982;-76
2020/12/19 01:26:46;;;;;;;;;;;4.70;99.90;;;;;;4177546;28;19908;-76
2020/12/19 01:28:47;;;;;;;;;;;4.70;99.90;;;;;;4180069;28;19932;-75
2020/12/19 01:30:48;;;;;;;;;;;4.70;99.90;;;;;;4181809;28;20268;-76
2020/12/19 01:32:50;;;;;;;;;;;4.70;99.90;;;;;;4181625;28;19916;-76
2020/12/19 01:34:50;;;;;;;;;;;4.70;99.90;;;;;;4181756;28;19909;-76
2020/12/19 01:36:51;;;;;;;;;;;4.60;99.90;;;;;;4181929;28;19916;-76
2020/12/19 01:38:51;;;;;;;;;;;4.60;99.90;;;;;;4180107;28;20003;-74
2020/12/19 01:40:53;;;;;;;;;;;4.60;99.90;;;;;;4181433;28;19912;-76
2020/12/19 01:42:54;;;;;;;;;;;4.60;99.90;;;;;;4180145;28;19912;-75
2020/12/19 01:44:54;;;;;;;;;;;4.70;99.90;;;;;;4181584;28;19915;-75
2020/12/19 01:46:56;;;;;;;;;;;4.70;99.90;;;;;;4180136;28;19909;-75
2020/12/19 01:48:57;;;;;;;;;;;4.70;99.90;;;;;;4213406;28;19950;-75
2020/12/19 01:50:58;;;;;;;;;;;4.70;99.90;;;;;;4181326;28;20011;-75
2020/12/19 01:52:58;;;;;;;;;;;4.70;99.90;;;;;;4179998;28;20454;-75
2020/12/19 01:55:01;;;;;;;;;;;4.70;99.90;;;;;;4179851;28;19916;-75
2020/12/19 01:57:01;;;;;;;;;;;4.70;99.90;;;;;;4181066;28;19917;-75
2020/12/19 01:59:02;;;;;;;;;;;4.70;99.90;;;;;;4180078;28;19912;-76
2020/12/19 02:01:03;;;;;;;;;;;4.70;99.90;;;;;;4180099;28;19995;-75
2020/12/19 02:03:04;;;;;;;;;;;4.70;99.90;;;;;;4180207;28;19912;-75
2020/12/19 02:05:05;;;;;;;;;;;4.80;99.90;;;;;;4178439;28;20063;-76
2020/12/19 02:07:05;;;;;;;;;;;4.90;99.90;;;;;;4179888;28;20007;-76
2020/12/19 02:09:06;;;;;;;;;;;4.90;99.90;;;;;;4180000;28;19912;-75
2020/12/19 02:11:07;;;;;;;;;;;4.80;99.90;;;;;;4195392;28;19927;-76
2020/12/19 02:13:07;;;;;;;;;;;5.00;99.90;;;;;;4179721;28;19916;-76
2020/12/19 02:15:08;;;;;;;;;;;5.00;99.90;;;;;;4179388;28;19940;-76
2020/12/19 02:17:11;;;;;;;;;;;5.00;99.90;;;;;;4181081;28;19920;-76
2020/12/19 02:19:14;;;;;;;;;;;4.90;99.90;;;;;;4181237;28;20003;-75
2020/12/19 02:21:14;;;;;;;;;;;4.90;99.90;;;;;;4179133;28;19931;-76
2020/12/19 02:23:15;;;;;;;;;;;4.80;99.90;;;;;;4179909;28;20007;-76
2020/12/19 02:25:16;;;;;;;;;;;4.80;99.90;;;;;;4212735;28;19971;-76
2020/12/19 02:27:16;;;;;;;;;;;4.70;99.90;;;;;;4179530;28;19962;-76
2020/12/19 02:29:17;;;;;;;;;;;4.60;99.90;;;;;;4179077;28;19928;-76
2020/12/19 02:31:17;;;;;;;;;;;4.70;99.90;;;;;;4179434;28;19999;-76
2020/12/19 02:33:18;;;;;;;;;;;4.70;99.90;;;;;;4212608;28;19995;-76
2020/12/19 02:35:18;;;;;;;;;;;4.80;99.90;;;;;;4179360;28;20383;-76
2020/12/19 02:37:19;;;;;;;;;;;4.80;99.90;;;;;;4180431;28;20000;-76
2020/12/19 02:39:20;;;;;;;;;;;4.80;99.90;;;;;;4179229;28;19952;-76
2020/12/19 02:41:20;;;;;;;;;;;4.80;99.90;;;;;;4179153;28;19920;-75
2020/12/19 02:43:21;;;;;;;;;;;4.80;99.90;;;;;;4180528;28;19928;-75
2020/12/19 02:45:21;;;;;;;;;;;4.70;99.90;;;;;;4179468;28;19951;-75
2020/12/19 02:47:22;;;;;;;;;;;4.70;99.90;;;;;;4180550;28;20326;-76
2020/12/19 02:49:23;;;;;;;;;;;4.70;99.90;;;;;;4162479;28;19915;-75
2020/12/19 02:51:24;;;;;;;;;;;4.60;99.90;;;;;;4194096;28;20359;-75
2020/12/19 02:53:25;;;;;;;;;;;4.60;99.90;;;;;;4178056;28;20108;-75
2020/12/19 02:55:26;;;;;;;;;;;4.60;99.90;;;;;;4180304;28;19988;-75
2020/12/19 02:57:26;;;;;;;;;;;4.70;99.90;;;;;;4179728;28;19962;-75
2020/12/19 02:59:27;;;;;;;;;;;4.70;99.90;;;;;;4177420;28;19939;-75
2020/12/19 03:01:31;;;;;;;;;;;4.70;99.90;;;;;;4177369;28;20312;-75
2020/12/19 03:03:32;;;;;;;;;;;4.70;99.90;;;;;;4179199;28;20294;-76
2020/12/19 03:05:33;;;;;;;;;;;4.70;99.90;;;;;;4177514;28;19913;-76
2020/12/19 03:07:33;;;;;;;;;;;4.70;99.90;;;;;;4211138;28;19908;-75
2020/12/19 03:09:34;;;;;;;;;;;4.70;99.90;;;;;;4177834;28;20284;-75
2020/12/19 03:11:35;;;;;;;;;;;4.70;99.90;;;;;;4178860;28;19909;-75
2020/12/19 03:13:35;;;;;;;;;;;4.60;99.90;;;;;;4175185;28;19909;-76
2020/12/19 03:15:36;;;;;;;;;;;4.70;99.90;;;;;;4178570;28;19912;-75
2020/12/19 03:17:36;;;;;;;;;;;4.60;99.90;;;;;;4178784;28;20375;-75
2020/12/19 03:19:37;;;;;;;;;;;4.60;99.90;;;;;;4177312;28;19999;-77
2020/12/19 03:21:37;;;;;;;;;;;4.60;99.90;;;;;;4178243;28;19970;-76
2020/12/19 03:23:38;;;;;;;;;;;4.60;99.90;;;;;;4177596;28;20025;-77
2020/12/19 03:25:39;;;;;;;;;;;4.60;99.90;;;;;;4178422;28;19916;-77
2020/12/19 03:27:39;;;;;;;;;;;4.50;99.90;;;;;;4178966;28;19913;-77
2020/12/19 03:29:40;;;;;;;;;;;4.50;99.90;;;;;;4179615;28;19978;-77
2020/12/19 03:31:40;;;;;;;;;;;4.40;99.90;;;;;;4178253;28;20398;-78
2020/12/19 03:33:41;;;;;;;;;;;4.40;99.90;;;;;;4178829;28;19909;-77
2020/12/19 03:35:41;;;;;;;;;;;4.40;99.90;;;;;;4178504;28;19916;-77
2020/12/19 03:37:42;;;;;;;;;;;4.40;99.90;;;;;;4178343;28;19917;-77
2020/12/19 03:39:43;;;;;;;;;;;4.40;99.90;;;;;;4211518;28;20007;-77
2020/12/19 03:41:43;;;;;;;;;;;4.40;99.90;;;;;;4178493;28;19954;-77
2020/12/19 03:43:44;;;;;;;;;;;4.50;99.90;;;;;;4179810;28;19909;-77
2020/12/19 03:45:45;;;;;;;;;;;4.50;99.90;;;;;;4179717;28;19908;-77
2020/12/19 03:47:45;;;;;;;;;;;4.60;99.90;;;;;;4178217;28;19913;-77
2020/12/19 03:49:46;;;;;;;;;;;;;;;;;;4179803;28;19928;-77
2020/12/19 03:51:47;;;;;;;;;;;4.60;99.90;;;;;;4178545;28;19913;-77
2020/12/19 03:53:47;;;;;;;;;;;4.50;99.90;;;;;;4178197;28;19909;-77
2020/12/19 03:55:48;;;;;;;;;;;4.50;99.90;;;;;;4179338;28;19909;-77
2020/12/19 03:57:48;;;;;;;;;;;4.50;99.90;;;;;;4178541;28;19919;-77
2020/12/19 03:59:49;;;;;;;;;;;4.50;99.90;;;;;;4178383;28;20375;-77
2020/12/19 04:01:49;;;;;;;;;;;4.50;99.90;;;;;;4210987;28;19911;-78
2020/12/19 04:03:50;;;;;;;;;;;4.60;99.90;;;;;;4178236;28;19915;-77
2020/12/19 04:05:50;;;;;;;;;;;4.60;99.90;;;;;;4179581;28;19958;-77
2020/12/19 04:07:51;;;;;;;;;;;4.60;99.90;;;;;;4170594;28;20391;-77
2020/12/19 04:09:51;;;;;;;;;;;4.50;99.90;;;;;;4171124;28;20279;-76
2020/12/19 04:11:52;;;;;;;;;;;4.50;99.90;;;;;;4175508;28;19928;-77
2020/12/19 04:13:53;;;;;;;;;;;4.50;99.90;;;;;;4177639;28;20360;-77
2020/12/19 04:15:53;;;;;;;;;;;4.60;99.90;;;;;;4175975;28;20026;-76
2020/12/19 04:17:54;;;;;;;;;;;4.50;99.90;;;;;;4176300;28;19909;-77
2020/12/19 04:19:54;;;;;;;;;;;4.60;99.90;;;;;;4177501;28;19913;-77
2020/12/19 04:21:55;;;;;;;;;;;4.50;99.90;;;;;;4176102;28;19909;-77
2020/12/19 04:23:55;;;;;;;;;;;4.50;99.90;;;;;;4176251;28;20283;-77
2020/12/19 04:25:56;;;;;;;;;;;4.40;99.90;;;;;;4177875;28;20308;-77
2020/12/19 04:27:57;;;;;;;;;;;4.40;99.90;;;;;;4178881;28;19913;-77
2020/12/19 04:29:57;;;;;;;;;;;4.40;99.90;;;;;;4177606;28;19921;-77
2020/12/19 04:31:58;;;;;;;;;;;4.40;99.90;;;;;;4179128;28;19909;-77
2020/12/19 04:33:59;;;;;;;;;;;4.40;99.90;;;;;;4177578;28;19909;-78
2020/12/19 04:36:00;;;;;;;;;;;4.40;99.90;;;;;;4177048;28;20575;-77
2020/12/19 04:38:00;;;;;;;;;;;4.40;99.90;;;;;;4178729;28;19908;-77
2020/12/19 04:40:01;;;;;;;;;;;4.40;99.90;;;;;;4204786;28;19916;-78
2020/12/19 04:42:01;;;;;;;;;;;4.50;99.90;;;;;;4169834;28;19913;-78
2020/12/19 04:44:02;;;;;;;;;;;4.50;99.90;;;;;;4179205;28;19909;-78
2020/12/19 04:46:03;;;;;;;;;;;4.50;99.90;;;;;;4177582;28;19919;-77
2020/12/19 04:48:03;;;;;;;;;;;4.50;99.90;;;;;;4178494;28;19916;-78
2020/12/19 04:50:04;;;;;;;;;;;4.50;99.90;;;;;;4178848;28;19920;-78
2020/12/19 04:52:04;;;;;;;;;;;4.50;99.90;;;;;;4176611;28;19909;-77
2020/12/19 04:54:06;;;;;;;;;;;4.50;99.90;;;;;;4176178;28;20362;-77
2020/12/19 04:56:07;;;;;;;;;;;4.50;99.90;;;;;;4210002;28;20453;-77
2020/12/19 04:58:12;;;;;;;;;;;4.60;99.90;;;;;;4179081;28;19909;-78
2020/12/19 05:00:12;;;;;;;;;;;4.60;99.90;;;;;;4178566;28;19912;-77
2020/12/19 05:02:13;;;;;;;;;;;4.60;99.90;;;;;;4177807;28;19915;-77
2020/12/19 05:04:14;;;;;;;;;;;4.60;99.90;;;;;;4179540;28;19916;-77
2020/12/19 05:06:22;;;;;;;;;;;4.70;99.90;;;;;;4180547;28;19932;-77
2020/12/19 05:08:22;;;;;;;;;;;4.60;99.90;;;;;;4179153;28;19925;-77
2020/12/19 05:10:22;;;;;;;;;;;4.60;99.90;;;;;;4180312;28;19981;-78
2020/12/19 05:12:24;;;;;;;;;;;4.60;99.90;;;;;;4179349;28;19943;-78
2020/12/19 05:14:25;;;;;;;;;;;4.60;99.90;;;;;;4180693;28;19916;-78
2020/12/19 05:16:25;;;;;;;;;;;4.60;99.90;;;;;;4179054;28;19909;-77
2020/12/19 05:18:26;;;;;;;;;;;4.60;99.90;;;;;;4181281;28;20032;-78
2020/12/19 05:20:27;;;;;;;;;;;4.60;99.90;;;;;;4182099;28;19989;-78
2020/12/19 05:22:32;;;;;;;;;;;4.60;99.90;;;;;;4179229;28;20386;-78
2020/12/19 05:24:36;;;;;;;;;;;4.60;99.90;;;;;;4180560;28;19919;-78
2020/12/19 05:26:37;;;;;;;;;;;4.60;99.90;;;;;;4194882;28;19916;-78
2020/12/19 05:28:39;;;;;;;;;;;4.60;99.90;;;;;;4191562;28;19909;-78
2020/12/19 05:30:40;;;;;;;;;;;4.60;99.90;;;;;;4194221;28;19923;-78
2020/12/19 05:32:43;;;;;;;;;;;4.60;99.90;;;;;;4194672;28;19908;-78
2020/12/19 05:34:46;;;;;;;;;;;4.70;99.90;;;;;;4174936;28;20368;-78
2020/12/19 05:36:47;;;;;;;;;;;4.70;99.90;;;;;;4191143;28;19966;-77
2020/12/19 05:38:48;;;;;;;;;;;4.80;99.90;;;;;;4192730;28;19912;-77
2020/12/19 05:40:49;;;;;;;;;;;4.80;99.90;;;;;;4195165;28;19916;-78
2020/12/19 05:42:49;;;;;;;;;;;4.80;99.90;;;;;;4195808;28;19958;-78
2020/12/19 05:44:50;;;;;;;;;;;4.90;99.90;;;;;;4186540;28;19922;-78
2020/12/19 05:46:51;;;;;;;;;;;4.80;99.90;;;;;;4181251;28;20014;-78
2020/12/19 05:48:51;;;;;;;;;;;4.80;99.90;;;;;;4181157;28;19934;-78
2020/12/19 05:50:52;;;;;;;;;;;4.70;99.90;;;;;;4181343;28;20289;-77
2020/12/19 05:52:54;;;;;;;;;;;4.70;99.90;;;;;;4181159;28;19948;-78
2020/12/19 05:54:55;;;;;;;;;;;4.70;99.90;;;;;;4173636;28;20014;-77
2020/12/19 05:56:57;;;;;;;;;;;4.70;99.90;;;;;;4181240;28;20253;-78
2020/12/19 05:59:00;;;;;;;;;;;4.70;99.90;;;;;;4178909;28;19913;-77
2020/12/19 06:01:00;;;;;;;;;;;4.70;99.90;;;;;;4181339;28;19976;-77
2020/12/19 06:03:02;;;;;;;;;;;4.70;99.90;;;;;;4179507;28;19979;-78
2020/12/19 06:05:07;;;;;;;;;;;4.70;99.90;;;;;;4211637;28;20410;-78
2020/12/19 06:07:09;;;;;;;;;;;4.80;99.90;;;;;;4178626;28;20536;-77
2020/12/19 06:09:10;;;;;;;;;;;4.80;99.90;;;;;;4178861;28;20391;-78
2020/12/19 06:11:14;;;;;;;;;;;4.80;99.90;;;;;;4179421;28;19912;-77
2020/12/19 06:13:15;;;;;;;;;;;4.80;99.90;;;;;;4211106;28;19957;-77
2020/12/19 06:15:22;;;;;;;;;;;4.80;99.90;;;;;;4180576;28;19958;-77
2020/12/19 06:17:36;;;;;;;;;;;4.90;99.90;;;;;;4178828;28;20419;-77
2020/12/19 06:19:40;;;;;;;;;;;4.80;99.90;;;;;;4178426;28;20015;-77
2020/12/19 06:21:46;;;;;;;;;;;4.80;99.90;;;;;;4199015;28;20373;-77
2020/12/19 06:23:47;;;;;;;;;;;4.80;99.90;;;;;;4196238;28;19912;-77
2020/12/19 06:25:47;;;;;;;;;;;4.80;99.90;;;;;;4180751;28;19908;-77
2020/12/19 06:27:48;;;;;;;;;;;4.80;99.90;;;;;;4179436;28;20567;-77
2020/12/19 06:29:52;;;;;;;;;;;4.80;99.90;;;;;;4179659;28;19920;-77
2020/12/19 06:31:58;;;;;;;;;;;4.80;99.90;;;;;;4179634;28;19916;-77
2020/12/19 06:34:02;;;;;;;;;;;4.80;99.90;;;;;;4180478;28;20422;-77
2020/12/19 06:36:04;;;;;;;;;;;4.70;99.90;;;;;;4179196;28;19916;-78
2020/12/19 06:38:04;;;;;;;;;;;4.80;99.90;;;;;;4179772;28;19995;-78
2020/12/19 06:40:12;;;;;;;;;;;4.70;99.90;;;;;;4179650;28;19932;-77
2020/12/19 06:42:26;;;;;;;;;;;4.80;99.90;;;;;;4178351;28;19927;-78
2020/12/19 06:44:29;;;;;;;;;;;4.80;99.90;;;;;;4178358;28;19999;-77
2020/12/19 06:46:30;;;;;;;;;;;4.70;99.90;;;;;;4180739;28;19913;-77
2020/12/19 06:48:32;;;;;;;;;;;4.70;99.90;;;;;;4179479;28;20360;-77
2020/12/19 06:50:51;;;;;;;;;;;4.70;99.90;;;;;;4179264;28;20390;-77
2020/12/19 06:53:01;;;;;;;;;;;4.70;99.90;;;;;;4179594;28;19908;-76
2020/12/19 06:55:17;;;;;;;;;;;4.70;99.90;;;;;;4179235;28;19919;-76
2020/12/19 06:57:28;;;;;;;;;;;4.70;99.90;;;;;;4177931;28;20446;-77
2020/12/19 06:59:29;;;;;;;;;;;4.70;99.90;;;;;;4179480;28;20002;-78
2020/12/19 07:01:30;;;;;;;;;;;4.70;99.90;;;;;;4178652;28;19935;-77
2020/12/19 07:03:38;;;;;;;;;;;4.70;99.90;;;;;;4193377;28;19924;-77
2020/12/19 07:05:39;;;;;;;;;;;4.70;99.90;;;;;;4189712;28;19923;-77
2020/12/19 07:07:39;;;;;;;;;;;4.80;99.90;;;;;;4179444;28;20295;-77
2020/12/19 07:09:41;;;;;;;;;;;4.80;99.90;;;;;;4177788;28;19908;-77
2020/12/19 07:11:42;;;;;;;;;;;4.80;99.90;;;;;;4188376;28;19912;-78
2020/12/19 07:13:54;;;;;;;;;;;4.70;99.90;;;;;;4191549;28;20283;-77
2020/12/19 07:15:54;;;;;;;;;;;4.70;99.90;;;;;;4192754;28;19970;-78
2020/12/19 07:17:55;;;;;;;;;;;4.60;99.90;;;;;;4211865;28;19916;-77
2020/12/19 07:20:00;;;;;;;;;;;4.70;99.90;;;;;;4178788;28;20280;-78
2020/12/19 07:22:00;;;;;;;;;;;4.70;99.90;;;;;;4179880;28;20003;-78
2020/12/19 07:24:01;;;;;;;;;;;4.70;99.90;;;;;;4179286;28;19913;-77
2020/12/19 07:26:02;;;;;;;;;;;4.60;99.90;;;;;;4178260;28;19923;-80
2020/12/19 07:28:03;;;;;;;;;;;4.60;99.90;;;;;;4185359;28;19912;-77
2020/12/19 07:30:04;;;;;;;;;;;4.60;99.90;;;;;;4192202;28;19948;-78
2020/12/19 07:32:04;;;;;;;;;;;4.60;99.90;;;;;;4188828;28;19908;-76
2020/12/19 07:34:05;;;;;;;;;;;4.60;99.90;;;;;;4192453;28;19908;-77
2020/12/19 07:36:06;;;;;;;;;;;4.70;99.90;;;;;;4177545;28;19908;-77
2020/12/19 07:38:06;;;;;;;;;;;4.70;99.90;;;;;;4178342;28;19913;-79
2020/12/19 07:40:07;;;;;;;;;;;4.80;99.90;;;;;;4177737;28;19935;-78
2020/12/19 07:42:08;;;;;;;;;;;4.80;99.90;;;;;;4185512;28;19909;-79
2020/12/19 07:44:18;;;;;;;;;;;4.80;99.90;;;;;;4184524;28;19916;-78
2020/12/19 07:46:21;;;;;;;;;;;4.80;99.90;;;;;;4211558;28;19908;-78
2020/12/19 07:48:22;;;;;;;;;;;4.80;99.90;;;;;;4179065;28;19924;-78
2020/12/19 07:50:23;;;;;;;;;;;4.80;99.90;;;;;;4178542;28;19913;-78
2020/12/19 07:52:24;;;;;;;;;;;4.90;99.90;;;;;;4177195;28;19952;-78
2020/12/19 07:54:25;;;;;;;;;;;4.80;99.90;;;;;;4177561;28;19913;-78
2020/12/19 07:56:25;;;;;;;;;;;4.90;99.90;;;;;;4179326;28;19970;-78
2020/12/19 07:58:31;;;;;;;;;;;4.90;99.90;;;;;;4176831;28;19960;-78
2020/12/19 08:00:32;;;;;;;;;;;5.00;99.90;;;;;;4176758;28;20346;-78
2020/12/19 08:02:36;;;;;;;;;;;5.00;99.90;;;;;;4177986;28;20007;-78
2020/12/19 08:04:36;;;;;;;;;;;5.00;99.90;;;;;;4176475;28;19916;-78
2020/12/19 08:06:47;;;;;;;;;;;5.00;99.90;;;;;;4209543;28;20327;-77
2020/12/19 08:08:57;;;;;;;;;;;5.00;99.90;;;;;;4176120;28;19999;-78
2020/12/19 08:11:03;;;;;;;;;;;5.00;99.90;;;;;;4186314;28;20420;-78
2020/12/19 08:13:08;;;;;;;;;;;5.00;99.90;;;;;;4167796;28;19967;-78
2020/12/19 08:15:15;;;;;;;;;;;5.00;99.90;;;;;;4174878;28;19948;-78
2020/12/19 08:17:17;;;;;;;;;;;5.00;99.90;;;;;;4177786;28;19909;-77
2020/12/19 08:19:22;;;;;;;;;;;5.00;99.90;;;;;;4177842;28;20375;-77
2020/12/19 08:21:23;;;;;;;;;;;5.20;99.90;;;;;;4177426;28;19933;-76
2020/12/19 08:23:23;;;;;;;;;;;5.30;99.90;;;;;;4176523;28;19912;-77
2020/12/19 08:25:24;;;;;;;;;;;5.30;99.90;;;;;;4175065;28;19926;-77
2020/12/19 08:27:40;;;;;;;;;;;5.30;99.90;;;;;;4174875;28;19917;-77
2020/12/19 08:29:40;;;;;;;;;;;5.30;99.90;;;;;;4176829;28;19916;-75
2020/12/19 08:31:42;;;;;;;;;;;5.40;99.90;;;;;;4177655;28;20415;-76
2020/12/19 08:33:47;;;;;;;;;;;5.40;99.90;;;;;;4177235;28;20352;-76
2020/12/19 08:35:48;;;;;;;;;;;5.50;99.90;;;;;;4210966;28;19908;-76
2020/12/19 08:37:49;;;;;;;;;;;5.50;99.90;;;;;;4176097;28;20284;-76
2020/12/19 08:40:08;;;;;;;;;;;5.50;99.90;;;;;;4192167;28;19923;-77
2020/12/19 08:42:08;;;;;;;;;;;5.60;99.90;;;;;;4186779;28;19981;-78
2020/12/19 08:44:22;;;;;;;;;;;5.70;99.90;;;;;;4181873;28;19908;-76
2020/12/19 08:46:29;;;;;;;;;;;5.70;99.90;;;;;;4178782;28;19913;-77
2020/12/19 08:48:29;;;;;;;;;;;5.70;99.90;;;;;;4210687;28;19916;-76
2020/12/19 08:50:32;;;;;;;;;;;5.80;99.90;;;;;;4180796;28;20261;-77
2020/12/19 08:52:32;;;;;;;;;;;5.90;99.90;;;;;;4193443;28;19916;-80
2020/12/19 08:54:33;;;;;;;;;;;5.90;99.90;;;;;;4180467;28;19909;-79
2020/12/19 08:56:35;;;;;;;;;;;5.90;99.90;;;;;;4177060;28;20008;-80
2020/12/19 08:58:35;;;;;;;;;;;6.00;99.90;;;;;;4206312;28;19915;-82
2020/12/19 09:00:37;;;;;;;;;;;6.00;99.90;;;;;;4167949;28;19908;-79
2020/12/19 09:02:37;;;;;;;;;;;6.10;99.90;;;;;;4177393;28;19988;-80
2020/12/19 09:04:46;;;;;;;;;;;6.20;99.90;;;;;;4210319;28;19916;-79
2020/12/19 09:06:47;;;;;;;;;;;6.20;99.90;;;;;;4177431;28;19912;-78
2020/12/19 09:08:48;;;;;;;;;;;6.30;99.90;;;;;;4175954;28;20274;-79
2020/12/19 09:10:49;;;;;;;;;;;6.40;99.90;;;;;;4175887;28;19913;-78
2020/12/19 09:13:08;;;;;;;;;;;6.50;99.90;;;;;;4178056;28;19909;-78
2020/12/19 09:15:16;;;;;;;;;;;6.50;99.90;;;;;;4177045;28;19916;-80
2020/12/19 09:17:32;;;;;;;;;;;6.70;99.90;;;;;;4177626;28;19919;-80
2020/12/19 09:19:33;;;;;;;;;;;6.80;99.90;;;;;;4181774;28;20015;-79
2020/12/19 09:21:34;;;;;;;;;;;6.90;99.90;;;;;;4183231;28;20342;-76
2020/12/19 09:23:34;;;;;;;;;;;6.90;99.90;;;;;;4177212;28;19963;-77
2020/12/19 09:25:35;;;;;;;;;;;7.10;99.90;;;;;;4175720;28;20291;-76
2020/12/19 09:27:36;;;;;;;;;;;7.20;99.90;;;;;;4209149;28;19912;-76
2020/12/19 09:29:37;;;;;;;;;;;7.20;99.90;;;;;;4175796;28;20009;-77
2020/12/19 09:31:38;;;;;;;;;;;7.30;99.90;;;;;;4177163;28;19955;-77
2020/12/19 09:33:38;;;;;;;;;;;7.30;99.90;;;;;;4178511;28;20404;-77
2020/12/19 09:35:39;;;;;;;;;;;7.40;99.90;;;;;;4177399;28;19908;-78
2020/12/19 09:37:39;;;;;;;;;;;7.50;99.90;;;;;;4181709;28;19957;-79
2020/12/19 09:39:40;;;;;;;;;;;7.50;99.90;;;;;;4179061;28;19909;-79
2020/12/19 09:41:41;;;;;;;;;;;7.60;99.90;;;;;;4188460;28;19919;-78
2020/12/19 09:43:41;;;;;;;;;;;7.60;99.90;;;;;;4186865;28;19912;-79
2020/12/19 09:45:42;;;;;;;;;;;7.70;99.90;;;;;;4190867;28;19936;-79
2020/12/19 09:47:42;;;;;;;;;;;7.80;99.90;;;;;;4191533;28;19915;-79
2020/12/19 09:49:43;;;;;;;;;;;7.90;99.90;;;;;;4178594;28;19982;-79
2020/12/19 09:51:44;;;;;;;;;;;7.90;99.90;;;;;;4181671;28;19915;-80
2020/12/19 09:53:44;;;;;;;;;;;8.00;99.90;;;;;;4180355;28;20356;-80
2020/12/19 09:55:45;;;;;;;;;;;8.10;99.90;;;;;;4179748;28;19909;-77
2020/12/19 09:57:45;;;;;;;;;;;8.20;99.90;;;;;;4181660;28;19908;-81
2020/12/19 09:59:46;;;;;;;;;;;8.20;99.90;;;;;;4181006;28;19909;-80
2020/12/19 10:01:47;;;;;;;;;;;8.30;99.90;;;;;;4187777;28;19996;-80
2020/12/19 10:03:48;;;;;;;;;;;8.40;99.90;;;;;;4178623;28;19932;-79
2020/12/19 10:05:48;;;;;;;;;;;8.50;99.90;;;;;;4178400;28;19912;-78
2020/12/19 10:07:49;;;;;;;;;;;8.60;99.90;;;;;;4178440;28;19908;-79
2020/12/19 10:09:49;;;;;;;;;;;8.60;99.90;;;;;;4211373;28;20403;-80
2020/12/19 10:11:54;;;;;;;;;;;8.70;99.90;;;;;;4179826;28;19913;-79
2020/12/19 10:13:54;;;;;;;;;;;8.90;99.90;;;;;;4177199;28;20442;-78
2020/12/19 10:15:55;;;;;;;;;;;8.90;99.90;;;;;;4178289;28;19939;-83
2020/12/19 10:17:56;;;;;;;;;;;9.00;99.90;;;;;;4179425;28;19912;-81
2020/12/19 10:19:56;;;;;;;;;;;9.10;99.90;;;;;;4179579;28;19995;-81
2020/12/19 10:21:58;;;;;;;;;;;9.20;99.90;;;;;;4181158;28;20272;-81
2020/12/19 10:23:59;;;;;;;;;;;9.30;99.90;;;;;;4181150;28;20004;-81
2020/12/19 10:26:00;;;;;;;;;;;9.30;99.90;;;;;;4181276;28;20414;-81
2020/12/19 10:28:01;;;;;;;;;;;9.40;99.90;;;;;;4179423;28;19914;-81
2020/12/19 10:30:03;;;;;;;;;;;9.40;99.90;;;;;;4180697;28;19931;-82
2020/12/19 10:32:12;;;;;;;;;;;9.40;99.90;;;;;;4179783;28;19964;-81
2020/12/19 10:34:13;;;;;;;;;;;9.50;99.90;;;;;;4179582;28;19913;-80
2020/12/19 10:36:14;;;;;;;;;;;9.50;99.90;;;;;;4180663;28;19993;-81
2020/12/19 10:38:14;;;;;;;;;;;9.60;99.90;;;;;;4180499;28;19935;-81
2020/12/19 10:40:15;;;;;;;;;;;9.60;99.90;;;;;;4179247;28;20003;-81
2020/12/19 10:42:15;;;;;;;;;;;9.60;99.90;;;;;;4180832;28;19909;-81
2020/12/19 10:44:16;;;;;;;;;;;9.70;99.90;;;;;;4179007;28;20392;-81
2020/12/19 10:46:24;;;;;;;;;;;9.70;99.90;;;;;;4179604;28;19913;-80
2020/12/19 10:48:24;;;;;;;;;;;9.80;99.90;;;;;;4178920;28;19967;-80
2020/12/19 10:50:25;;;;;;;;;;;9.80;99.90;;;;;;4212082;28;19916;-79
2020/12/19 10:52:25;;;;;;;;;;;9.80;99.90;;;;;;4178213;28;20359;-81
2020/12/19 10:54:26;;;;;;;;;;;9.80;99.90;;;;;;4182859;28;19918;-79
2020/12/19 10:56:26;;;;;;;;;;;9.90;99.90;;;;;;4181433;28;20279;-79
2020/12/19 10:58:27;;;;;;;;;;;9.90;99.90;;;;;;4178246;28;20015;-80
2020/12/19 11:00:28;;;;;;;;;;;10.00;99.90;;;;;;4190484;28;19916;-79
2020/12/19 11:02:28;;;;;;;;;;;10.10;99.90;;;;;;4187575;28;19936;-80
2020/12/19 11:04:29;;;;;;;;;;;10.20;99.90;;;;;;4192904;28;20011;-80
2020/12/19 11:06:29;;;;;;;;;;;10.20;99.90;;;;;;4182917;28;19916;-79
2020/12/19 11:08:30;;;;;;;;;;;10.30;99.90;;;;;;4180188;28;19908;-80
2020/12/19 11:10:30;;;;;;;;;;;10.30;99.90;;;;;;4178674;28;20009;-79
2020/12/19 11:12:31;;;;;;;;;;;10.20;99.90;;;;;;4177690;28;19996;-79
2020/12/19 11:14:32;;;;;;;;;;;10.20;99.90;;;;;;4179346;28;20506;-79
2020/12/19 11:16:33;;;;;;;;;;;10.20;99.90;;;;;;4178132;28;19917;-79
2020/12/19 11:18:34;;;;;;;;;;;10.30;99.90;;;;;;4178364;28;19909;-80
2020/12/19 11:20:34;;;;;;;;;;;10.30;99.90;;;;;;4179960;28;20283;-79
2020/12/19 11:22:35;;;;;;;;;;;10.40;99.90;;;;;;4178899;28;19915;-79
2020/12/19 11:24:35;;;;;;;;;;;10.40;99.90;;;;;;4177385;28;19948;-79
2020/12/19 11:26:37;;;;;;;;;;;10.50;99.90;;;;;;4192787;28;19913;-80
2020/12/19 11:28:38;;;;;;;;;;;10.50;99.90;;;;;;4184775;28;19915;-80
2020/12/19 11:30:39;;;;;;;;;;;10.60;99.90;;;;;;4178482;28;20039;-79
2020/12/19 11:32:41;;;;;;;;;;;10.60;99.90;;;;;;4210090;28;19918;-80
2020/12/19 11:34:41;;;;;;;;;;;10.70;99.90;;;;;;4174904;28;19951;-80
2020/12/19 11:36:42;;;;;;;;;;;10.70;99.90;;;;;;4178428;28;19909;-80
2020/12/19 11:38:42;;;;;;;;;;;10.80;99.90;;;;;;4181797;28;19915;-80
2020/12/19 11:40:43;;;;;;;;;;;10.80;99.90;;;;;;4216626;28;20298;-79
2020/12/19 11:42:43;;;;;;;;;;;10.90;99.90;;;;;;4188253;28;19913;-80
2020/12/19 11:44:44;;;;;;;;;;;10.90;99.90;;;;;;4179362;28;19912;-79
2020/12/19 11:46:45;;;;;;;;;;;11.00;99.90;;;;;;4179327;28;19913;-81
2020/12/19 11:48:45;;;;;;;;;;;11.20;99.90;;;;;;4218119;28;20025;-80
2020/12/19 11:50:46;;;;;;;;;;;11.40;99.90;;;;;;4192697;28;19970;-81
2020/12/19 11:52:46;;;;;;;;;;;11.50;99.90;;;;;;4191821;28;19916;-80
2020/12/19 11:54:47;;;;;;;;;;;11.60;99.90;;;;;;4179901;28;19920;-79
2020/12/19 11:56:47;;;;;;;;;;;11.50;99.90;;;;;;4178333;28;20066;-79